Time;durP1;ratioP1;P1;durP2;ratioP2;P2;SDS_P1;SDS_P2;PMS_P1;PMS_P2;Temp;Humidity;BMP_temperature;BMP_pressure;BME280_temperature;BME280_humidity;BME280_pressure;Samples;Min_cycle;Max_cycle;Signal;HPM_P1;HPM_P2
2023/10/02 00:00:39;;;;;;;11.82;3.95;;;;;;;;;;5154843;27;20025;-72
2023/10/02 00:03:24;;;;;;;10.45;3.90;;;;;;;;;;5155696;27;20021;-72
2023/10/02 00:06:11;;;;;;;12.43;4.10;;;;;;;;;;5155360;27;20022;-73
2023/10/02 00:08:57;;;;;;;9.18;3.70;;;;;;;;;;5154885;27;20477;-72
2023/10/02 00:11:44;;;;;;;9.23;3.47;;;;;;;;;;5155091;27;20448;-72
2023/10/02 00:14:35;;;;;;;7.00;3.70;;;;;;;;;;5154393;27;20083;-73
2023/10/02 00:17:22;;;;;;;10.75;3.85;;;;;;;;;;5160460;27;20011;-72
2023/10/02 00:20:14;;;;;;;8.93;3.75;;;;;;;;;;5159315;27;20022;-73
2023/10/02 00:23:01;;;;;;;8.95;3.83;;;;;;;;;;5158992;27;20007;-73
2023/10/02 00:25:52;;;;;;;9.43;3.88;;;;;;;;;;5159182;27;20015;-72
2023/10/02 00:28:37;;;;;;;7.15;3.70;;;;;;;;;;5160897;27;20057;-71
2023/10/02 00:31:35;;;;;;;7.25;3.78;;;;;;;;;;5158506;27;20022;-73
2023/10/02 00:34:30;;;;;;;8.85;3.95;;;;;;;;;;5158433;27;20043;-73
2023/10/02 00:37:16;;;;;;;7.85;3.97;;;;;;;;;;5159113;27;20011;-74
2023/10/02 00:40:01;;;;;;;7.85;3.83;;;;;;;;;;5158305;27;20011;-73
2023/10/02 00:42:49;;;;;;;5.53;3.35;;;;;;;;;;5158311;27;20041;-73
2023/10/02 00:45:38;;;;;;;7.88;3.55;;;;;;;;;;5158509;27;20312;-72
2023/10/02 00:48:28;;;;;;;6.90;3.60;;;;;;;;;;5158826;27;20015;-73
2023/10/02 00:51:13;;;;;;;9.63;3.88;;;;;;;;;;5179484;27;20037;-73
2023/10/02 00:54:23;;;;;;;7.93;3.60;;;;;;;;;;5179598;27;20014;-73
2023/10/02 00:57:16;;;;;;;7.55;3.33;;;;;;;;;;5179470;27;20089;-73
2023/10/02 01:00:16;;;;;;;7.53;3.55;;;;;;;;;;5179202;27;20093;-72
2023/10/02 01:03:04;;;;;;;7.75;3.40;;;;;;;;;;5179559;27;20018;-73
2023/10/02 01:05:50;;;;;;;7.95;3.17;;;;;;;;;;5179135;27;20038;-72
2023/10/02 01:08:46;;;;;;;6.18;3.15;;;;;;;;;;5178282;27;20057;-73
2023/10/02 01:11:34;;;;;;;8.57;3.53;;;;;;;;;;5162403;27;20022;-73
2023/10/02 01:14:40;;;;;;;9.52;3.58;;;;;;;;;;5163554;27;20366;-73
2023/10/02 01:17:26;;;;;;;7.28;3.55;;;;;;;;;;5179161;27;20446;-73
2023/10/02 01:20:54;;;;;;;7.57;3.08;;;;;;;;;;5177785;27;20033;-74
2023/10/02 01:23:23;;;;;;;7.20;3.38;;;;;;;;;;5179282;27;20026;-73
2023/10/02 01:26:08;;;;;;;8.90;3.50;;;;;;;;;;5177490;27;20053;-73
2023/10/02 01:28:54;;;;;;;8.13;3.30;;;;;;;;;;5177904;27;20109;-73
2023/10/02 01:31:45;;;;;;;7.25;3.15;;;;;;;;;;5178477;27;20014;-73
2023/10/02 01:34:34;;;;;;;8.38;3.10;;;;;;;;;;5177557;27;20045;-73
2023/10/02 01:37:35;;;;;;;6.75;3.60;;;;;;;;;;5177454;27;20022;-73
2023/10/02 01:40:33;;;;;;;7.20;3.38;;;;;;;;;;5177198;27;20014;-73
2023/10/02 01:43:20;;;;;;;8.63;3.22;;;;;;;;;;5177697;27;20087;-73
2023/10/02 01:46:06;;;;;;;8.93;3.55;;;;;;;;;;5163215;27;20014;-73
2023/10/02 01:48:52;;;;;;;6.68;3.35;;;;;;;;;;5177561;27;20042;-73
2023/10/02 01:51:41;;;;;;;7.78;3.17;;;;;;;;;;5162405;27;20029;-74
2023/10/02 01:54:29;;;;;;;7.30;3.03;;;;;;;;;;5177443;27;20432;-74
2023/10/02 01:57:24;;;;;;;6.50;2.88;;;;;;;;;;5163764;27;20067;-74
2023/10/02 02:00:13;;;;;;;6.95;3.13;;;;;;;;;;5162676;27;20018;-74
2023/10/02 02:03:14;;;;;;;10.63;3.00;;;;;;;;;;5163028;27;20036;-74
2023/10/02 02:06:08;;;;;;;5.85;3.08;;;;;;;;;;5162954;27;20026;-73
2023/10/02 02:08:58;;;;;;;5.40;2.75;;;;;;;;;;5177573;27;20037;-72
2023/10/02 02:12:05;;;;;;;8.45;2.70;;;;;;;;;;5162330;27;20078;-73
2023/10/02 02:14:52;;;;;;;9.43;3.35;;;;;;;;;;5178472;27;20455;-73
2023/10/02 02:17:38;;;;;;;5.65;2.60;;;;;;;;;;5176829;27;20023;-74
2023/10/02 02:20:44;;;;;;;9.23;3.00;;;;;;;;;;5177479;27;20019;-73
2023/10/02 02:23:31;;;;;;;7.00;3.10;;;;;;;;;;5176651;27;20394;-73
2023/10/02 02:26:23;;;;;;;7.82;2.97;;;;;;;;;;5176304;27;20014;-74
2023/10/02 02:29:23;;;;;;;6.07;2.88;;;;;;;;;;5162143;27;20113;-73
2023/10/02 02:32:09;;;;;;;6.15;2.63;;;;;;;;;;5176893;27;20022;-73
2023/10/02 02:35:00;;;;;;;9.02;2.88;;;;;;;;;;5161798;27;20348;-73
2023/10/02 02:37:46;;;;;;;8.57;3.00;;;;;;;;;;5177580;27;20154;-73
2023/10/02 02:40:32;;;;;;;10.15;3.03;;;;;;;;;;5162766;27;20018;-74
2023/10/02 02:43:22;;;;;;;7.65;2.97;;;;;;;;;;5176673;27;20086;-73
2023/10/02 02:46:08;;;;;;;10.65;2.95;;;;;;;;;;5176688;27;20075;-73
2023/10/02 02:48:56;;;;;;;11.57;2.50;;;;;;;;;;5177192;27;20035;-73
2023/10/02 02:51:48;;;;;;;7.15;2.70;;;;;;;;;;5163209;27;20033;-72
2023/10/02 02:54:34;;;;;;;7.57;3.13;;;;;;;;;;5176683;27;20067;-74
2023/10/02 02:57:25;;;;;;;7.40;3.08;;;;;;;;;;5176034;27;20018;-73
2023/10/02 03:00:29;;;;;;;7.40;3.38;;;;;;;;;;5177252;27;20011;-73
2023/10/02 03:03:32;;;;;;;6.70;3.03;;;;;;;;;;5176643;27;20042;-72
2023/10/02 03:06:22;;;;;;;6.20;2.83;;;;;;;;;;5176749;27;20116;-73
2023/10/02 03:09:08;;;;;;;7.43;2.92;;;;;;;;;;5176194;27;20059;-72
2023/10/02 03:11:54;;;;;;;11.13;3.55;;;;;;;;;;5176790;27;20026;-73
2023/10/02 03:14:40;;;;;;;23.35;4.55;;;;;;;;;;5176595;27;20014;-73
2023/10/02 03:17:28;;;;;;;16.33;4.03;;;;;;;;;;5176955;27;20019;-72
2023/10/02 03:20:23;;;;;;;12.38;3.40;;;;;;;;;;5177350;27;20540;-74
2023/10/02 03:23:11;;;;;;;8.90;3.47;;;;;;;;;;5177305;27;20094;-73
2023/10/02 03:25:57;;;;;;;12.15;3.63;;;;;;;;;;5161861;27;20363;-73
2023/10/02 03:28:43;;;;;;;9.93;3.35;;;;;;;;;;5176472;27;20400;-73
2023/10/02 03:31:34;;;;;;;11.77;4.10;;;;;;;;;;5176103;27;20068;-73
2023/10/02 03:34:32;;;;;;;8.32;3.60;;;;;;;;;;5176281;27;20397;-74
2023/10/02 03:37:21;;;;;;;9.07;3.70;;;;;;;;;;5176828;27;20104;-73
2023/10/02 03:40:14;;;;;;;14.57;3.75;;;;;;;;;;5176433;27;20018;-74
2023/10/02 03:43:18;;;;;;;11.35;3.80;;;;;;;;;;5175158;27;20025;-74
2023/10/02 03:46:04;;;;;;;18.50;3.97;;;;;;;;;;5176309;27;20050;-72
2023/10/02 03:48:51;;;;;;;10.45;3.50;;;;;;;;;;5176057;27;20117;-73
2023/10/02 03:51:36;;;;;;;8.70;3.63;;;;;;;;;;5175497;27;20069;-73
2023/10/02 03:54:22;;;;;;;10.70;3.25;;;;;;;;;;5175277;27;20022;-73
2023/10/02 03:57:10;;;;;;;8.98;3.47;;;;;;;;;;5177145;27;20022;-72
2023/10/02 03:59:57;;;;;;;6.35;3.08;;;;;;;;;;5176810;27;20014;-74
2023/10/02 04:02:44;;;;;;;9.13;3.63;;;;;;;;;;5161660;27;20023;-72
2023/10/02 04:05:33;;;;;;;8.52;3.58;;;;;;;;;;5159399;27;20018;-72
2023/10/02 04:08:24;;;;;;;8.70;3.03;;;;;;;;;;5161123;27;20030;-72
2023/10/02 04:11:12;;;;;;;12.98;3.17;;;;;;;;;;5174606;27;20356;-71
2023/10/02 04:13:59;;;;;;;12.70;3.45;;;;;;;;;;5175527;27;20022;-72
2023/10/02 04:16:46;;;;;;;8.75;3.50;;;;;;;;;;5176439;27;20027;-72
2023/10/02 04:19:33;;;;;;;9.18;3.85;;;;;;;;;;5176653;27;20018;-72
2023/10/02 04:22:22;;;;;;;10.82;3.67;;;;;;;;;;5160487;27;20448;-73
2023/10/02 04:25:09;;;;;;;9.40;4.10;;;;;;;;;;5174923;27;20452;-72
2023/10/02 04:30:45;;;;;;;10.15;4.30;;;;;;;;;;5176081;27;20026;-71
2023/10/02 04:33:37;;;;;;;14.60;3.80;;;;;;;;;;5160650;27;20018;-73
2023/10/02 04:36:34;;;;;;;12.80;4.32;;;;;;;;;;5160533;27;20097;-72
2023/10/02 04:43:19;;;;;;;10.15;3.80;;;;;;;;;;5175549;27;20329;-72
2023/10/02 04:45:26;;;;;;;11.20;3.90;;;;;;;;;;5174440;27;20015;-72
2023/10/02 04:48:12;;;;;;;10.98;3.30;;;;;;;;;;5175716;27;20018;-71
2023/10/02 04:51:03;;;;;;;8.60;3.53;;;;;;;;;;5175438;27;20186;-72
2023/10/02 04:53:49;;;;;;;22.48;4.07;;;;;;;;;;5176180;27;20078;-71
2023/10/02 04:56:34;;;;;;;9.65;3.75;;;;;;;;;;5175554;27;20018;-72
2023/10/02 04:59:20;;;;;;;11.50;3.78;;;;;;;;;;5175119;27;20089;-71
2023/10/02 05:02:21;;;;;;;10.40;3.88;;;;;;;;;;5176834;27;20045;-71
2023/10/02 05:05:08;;;;;;;9.07;3.40;;;;;;;;;;5180231;27;20327;-71
2023/10/02 05:07:56;;;;;;;13.52;4.20;;;;;;;;;;5178414;27;20018;-70
2023/10/02 05:10:42;;;;;;;8.82;3.63;;;;;;;;;;5177879;27;20086;-72
2023/10/02 05:17:17;;;;;;;13.27;3.95;;;;;;;;;;5095703;28;20472;-72
2023/10/02 05:20:07;;;;;;;10.18;3.72;;;;;;;;;;5081727;28;20024;-69
2023/10/02 05:22:58;;;;;;;12.68;4.22;;;;;;;;;;5163447;27;20033;-71
2023/10/02 05:25:47;;;;;;;11.57;4.05;;;;;;;;;;5163874;27;20014;-72
2023/10/02 05:28:46;;;;;;;14.32;4.07;;;;;;;;;;5178253;27;20101;-71
2023/10/02 05:31:35;;;;;;;8.35;3.85;;;;;;;;;;5177790;27;20029;-70
2023/10/02 05:34:24;;;;;;;13.88;4.07;;;;;;;;;;5179064;27;20022;-71
2023/10/02 05:37:11;;;;;;;10.70;4.00;;;;;;;;;;5178900;27;20097;-68
2023/10/02 05:45:51;;;;;;;8.90;4.15;;;;;;;;;;5178740;27;20371;-72
2023/10/02 05:48:38;;;;;;;9.68;4.00;;;;;;;;;;5177650;27;20036;-71
2023/10/02 05:51:23;;;;;;;13.65;4.35;;;;;;;;;;5178170;27;20022;-71
2023/10/02 05:54:09;;;;;;;8.35;4.05;;;;;;;;;;5162946;27;20045;-72
2023/10/02 05:57:09;;;;;;;16.73;4.63;;;;;;;;;;5177579;27;20021;-72
2023/10/02 05:59:57;;;;;;;12.07;4.47;;;;;;;;;;5177069;27;20049;-71
2023/10/02 06:02:58;;;;;;;11.07;4.07;;;;;;;;;;5162911;27;20022;-72
2023/10/02 06:06:06;;;;;;;13.05;4.68;;;;;;;;;;5178255;27;20116;-71
2023/10/02 06:09:00;;;;;;;12.15;4.20;;;;;;;;;;5178554;27;20057;-71
2023/10/02 06:12:05;;;;;;;11.68;4.05;;;;;;;;;;5163444;27;20460;-72
2023/10/02 06:14:51;;;;;;;10.63;4.40;;;;;;;;;;5176341;27;20034;-70
2023/10/02 06:17:37;;;;;;;16.08;4.57;;;;;;;;;;5163069;27;20407;-72
2023/10/02 06:20:22;;;;;;;15.15;4.55;;;;;;;;;;5176784;27;20010;-71
2023/10/02 06:23:22;;;;;;;18.50;4.95;;;;;;;;;;5162864;27;20034;-70
2023/10/02 06:26:09;;;;;;;12.10;4.50;;;;;;;;;;5161406;27;20019;-71
2023/10/02 06:29:13;;;;;;;13.73;6.65;;;;;;;;;;5162564;27;20132;-71
2023/10/02 06:32:22;;;;;;;20.35;5.38;;;;;;;;;;5162438;27;20082;-72
2023/10/02 06:35:07;;;;;;;14.90;4.78;;;;;;;;;;5179142;27;20026;-73
2023/10/02 06:37:54;;;;;;;14.95;4.78;;;;;;;;;;5176505;27;20018;-70
2023/10/02 06:40:52;;;;;;;38.88;6.95;;;;;;;;;;5177362;27;20035;-72
2023/10/02 06:43:38;;;;;;;19.45;5.30;;;;;;;;;;5162123;27;20022;-72
2023/10/02 06:46:23;;;;;;;19.70;5.15;;;;;;;;;;5161862;27;20021;-71
2023/10/02 06:49:15;;;;;;;13.27;4.60;;;;;;;;;;5155254;27;20053;-72
2023/10/02 06:52:12;;;;;;;11.75;4.53;;;;;;;;;;5155011;27;20029;-72
2023/10/02 06:55:03;;;;;;;15.93;5.30;;;;;;;;;;5155767;27;20359;-73
2023/10/02 06:57:52;;;;;;;16.85;5.07;;;;;;;;;;5156295;27;20448;-73
2023/10/02 07:00:54;;;;;;;10.35;4.20;;;;;;;;;;5155565;27;20053;-73
2023/10/02 07:03:50;;;;;;;31.83;6.22;;;;;;;;;;5156110;27;20022;-73
2023/10/02 07:06:41;;;;;;;11.98;4.20;;;;;;;;;;5157054;27;20079;-74
2023/10/02 07:09:27;;;;;;;50.47;7.25;;;;;;;;;;5155993;27;20026;-73
2023/10/02 07:12:20;;;;;;;42.97;7.28;;;;;;;;;;5155890;27;20093;-72
2023/10/02 07:15:20;;;;;;;15.30;5.13;;;;;;;;;;5156918;27;20348;-71
2023/10/02 07:18:12;;;;;;;11.75;4.60;;;;;;;;;;5155599;27;20036;-74
2023/10/02 07:20:57;;;;;;;13.48;5.10;;;;;;;;;;5154844;27;20018;-73
2023/10/02 07:23:45;;;;;;;11.38;4.50;;;;;;;;;;5156157;27;20018;-72
2023/10/02 07:26:49;;;;;;;9.82;4.57;;;;;;;;;;5154569;27;20022;-73
2023/10/02 07:29:38;;;;;;;13.98;4.78;;;;;;;;;;5155843;27;20353;-74
2023/10/02 07:32:31;;;;;;;13.30;4.45;;;;;;;;;;5155108;27;20015;-72
2023/10/02 07:35:21;;;;;;;11.18;4.38;;;;;;;;;;5154978;27;20413;-73
2023/10/02 07:38:09;;;;;;;13.23;4.60;;;;;;;;;;5154796;27;20102;-74
2023/10/02 07:40:54;;;;;;;10.60;4.57;;;;;;;;;;5155277;27;20378;-72
2023/10/02 07:43:40;;;;;;;11.68;4.55;;;;;;;;;;5155469;27;20317;-73
2023/10/02 07:46:27;;;;;;;11.82;4.75;;;;;;;;;;5155937;27;20014;-73
2023/10/02 07:49:12;;;;;;;17.40;4.50;;;;;;;;;;5162078;27;20508;-73
2023/10/02 07:51:58;;;;;;;20.83;4.95;;;;;;;;;;5177587;27;20030;-74
2023/10/02 07:54:48;;;;;;;20.20;5.20;;;;;;;;;;5175985;27;20021;-74
2023/10/02 07:57:35;;;;;;;17.52;5.28;;;;;;;;;;5177089;27;20061;-75
2023/10/02 08:00:38;;;;;;;15.20;4.38;;;;;;;;;;5160021;27;20014;-73
2023/10/02 08:03:36;;;;;;;28.40;5.53;;;;;;;;;;5175241;27;20477;-73
2023/10/02 08:09:35;;;;;;;19.45;4.72;;;;;;;;;;5176219;27;20022;-73
2023/10/02 08:12:33;;;;;;;10.68;4.55;;;;;;;;;;5175703;27;20367;-74
2023/10/02 08:15:32;;;;;;;19.92;4.40;;;;;;;;;;5176380;27;20010;-73
2023/10/02 08:18:18;;;;;;;32.20;6.30;;;;;;;;;;5176375;27;20037;-73
2023/10/02 08:21:04;;;;;;;26.60;5.30;;;;;;;;;;5161559;27;20018;-73
2023/10/02 08:23:52;;;;;;;33.10;6.38;;;;;;;;;;5160806;27;20406;-74
2023/10/02 08:26:39;;;;;;;21.90;4.63;;;;;;;;;;5183860;27;20030;-73
2023/10/02 08:29:27;;;;;;;56.83;8.35;;;;;;;;;;5176463;27;20436;-73
2023/10/02 08:32:12;;;;;;;19.08;4.88;;;;;;;;;;5175356;27;20353;-73
2023/10/02 08:34:58;;;;;;;20.60;5.20;;;;;;;;;;5175440;27;20056;-73
2023/10/02 08:37:44;;;;;;;13.88;5.28;;;;;;;;;;5164077;27;20341;-74
2023/10/02 08:40:32;;;;;;;18.58;5.20;;;;;;;;;;5179636;27;20121;-72
2023/10/02 08:43:18;;;;;;;19.35;5.55;;;;;;;;;;5179558;27;20022;-73
2023/10/02 08:46:04;;;;;;;16.38;4.45;;;;;;;;;;5180210;27;20046;-73
2023/10/02 08:48:54;;;;;;;20.13;5.60;;;;;;;;;;5164539;27;20111;-74
2023/10/02 08:51:48;;;;;;;22.17;5.07;;;;;;;;;;5164461;27;20363;-72
2023/10/02 08:54:33;;;;;;;18.02;5.32;;;;;;;;;;5180440;27;20018;-73
2023/10/02 08:57:19;;;;;;;12.80;4.60;;;;;;;;;;5164689;27;20056;-72
2023/10/02 09:00:09;;;;;;;11.20;4.05;;;;;;;;;;5178989;27;20027;-73
2023/10/02 09:03:11;;;;;;;14.32;4.20;;;;;;;;;;5164346;27;20105;-73
2023/10/02 09:06:25;;;;;;;10.60;4.03;;;;;;;;;;5180028;27;20121;-73
2023/10/02 09:12:03;;;;;;;16.52;4.65;;;;;;;;;;5178620;27;20026;-72
2023/10/02 09:14:52;;;;;;;16.92;4.72;;;;;;;;;;5179554;27;20090;-73
2023/10/02 09:17:45;;;;;;;11.95;4.25;;;;;;;;;;5178540;27;20010;-72
2023/10/02 09:20:51;;;;;;;12.73;4.55;;;;;;;;;;5163783;27;20015;-73
2023/10/02 09:23:37;;;;;;;10.25;4.20;;;;;;;;;;5164140;27;20028;-73
2023/10/02 09:26:24;;;;;;;11.85;4.00;;;;;;;;;;5179215;27;20026;-72
2023/10/02 09:29:12;;;;;;;13.52;4.40;;;;;;;;;;5178768;27;20026;-73
2023/10/02 09:31:58;;;;;;;13.23;4.03;;;;;;;;;;5178021;27;20126;-73
2023/10/02 09:35:08;;;;;;;18.45;5.10;;;;;;;;;;5177978;27;20137;-74
2023/10/02 09:37:56;;;;;;;10.75;4.40;;;;;;;;;;5166225;27;20433;-73
2023/10/02 09:43:49;;;;;;;11.38;4.35;;;;;;;;;;5177863;27;20014;-73
2023/10/02 09:46:35;;;;;;;11.63;4.18;;;;;;;;;;5177496;27;20022;-73
2023/10/02 09:49:25;;;;;;;10.43;4.15;;;;;;;;;;5176948;27;20095;-72
2023/10/02 09:52:16;;;;;;;13.95;4.10;;;;;;;;;;5163028;27;20492;-73
2023/10/02 09:55:15;;;;;;;11.20;3.67;;;;;;;;;;5163691;27;20019;-72
2023/10/02 09:58:03;;;;;;;11.38;4.72;;;;;;;;;;5177251;27;20043;-73
2023/10/02 10:01:07;;;;;;;7.15;3.70;;;;;;;;;;5177209;27;20117;-72
2023/10/02 10:03:56;;;;;;;8.35;3.83;;;;;;;;;;5177990;27;20032;-72
2023/10/02 10:06:59;;;;;;;10.60;4.10;;;;;;;;;;5161763;27;20343;-72
2023/10/02 10:10:07;;;;;;;10.77;4.30;;;;;;;;;;5178076;27;20011;-73
2023/10/02 10:12:58;;;;;;;6.93;3.35;;;;;;;;;;5178871;27;20068;-73
2023/10/02 10:15:43;;;;;;;9.15;3.65;;;;;;;;;;5177019;27;20026;-73
2023/10/02 10:18:49;;;;;;;10.48;4.00;;;;;;;;;;5178469;27;20011;-72
2023/10/02 10:21:56;;;;;;;10.60;3.95;;;;;;;;;;5177908;27;20054;-74
2023/10/02 10:24:57;;;;;;;10.32;3.60;;;;;;;;;;5177827;27;20440;-73
2023/10/02 10:27:55;;;;;;;13.02;4.10;;;;;;;;;;5178129;27;20101;-73
2023/10/02 10:30:46;;;;;;;9.02;3.70;;;;;;;;;;5177112;27;20033;-73
2023/10/02 10:33:35;;;;;;;11.23;4.03;;;;;;;;;;5176891;27;20459;-73
2023/10/02 10:36:35;;;;;;;10.57;3.53;;;;;;;;;;5176045;27;20050;-73
2023/10/02 10:39:43;;;;;;;8.93;3.47;;;;;;;;;;5163248;27;20010;-73
2023/10/02 10:42:28;;;;;;;17.33;3.80;;;;;;;;;;5177402;27;20030;-73
2023/10/02 10:45:15;;;;;;;10.65;3.70;;;;;;;;;;5177364;27;20014;-74
2023/10/02 10:48:01;;;;;;;8.77;3.60;;;;;;;;;;5176666;27;20409;-72
2023/10/02 10:50:57;;;;;;;7.43;3.60;;;;;;;;;;5176851;27;20107;-74
2023/10/02 10:53:42;;;;;;;18.00;4.90;;;;;;;;;;5163027;27;20045;-72
2023/10/02 10:56:28;;;;;;;13.30;3.97;;;;;;;;;;5177222;27;20053;-73
2023/10/02 10:59:24;;;;;;;9.23;3.80;;;;;;;;;;5161426;27;20025;-73
2023/10/02 11:02:12;;;;;;;12.07;3.55;;;;;;;;;;5162471;27;20026;-74
2023/10/02 11:05:02;;;;;;;7.70;3.42;;;;;;;;;;5177815;27;20025;-73
2023/10/02 11:07:48;;;;;;;10.65;3.75;;;;;;;;;;5162049;27;20110;-72
2023/10/02 11:10:34;;;;;;;11.00;3.80;;;;;;;;;;5175882;27;20412;-73
2023/10/02 11:13:24;;;;;;;8.57;3.58;;;;;;;;;;5148199;27;20018;-73
2023/10/02 11:16:09;;;;;;;8.93;3.55;;;;;;;;;;5177229;27;20042;-73
2023/10/02 11:19:10;;;;;;;10.77;3.85;;;;;;;;;;5162010;27;20063;-72
2023/10/02 11:22:01;;;;;;;8.10;3.97;;;;;;;;;;5176796;27;20042;-72
2023/10/02 11:24:53;;;;;;;11.15;3.80;;;;;;;;;;5176731;27;20022;-73
2023/10/02 11:27:40;;;;;;;9.43;3.88;;;;;;;;;;5176972;27;20414;-73
2023/10/02 11:30:32;;;;;;;10.10;3.30;;;;;;;;;;5177456;27;20105;-73
2023/10/02 11:33:27;;;;;;;10.07;3.63;;;;;;;;;;5176047;27;20034;-72
2023/10/02 11:36:13;;;;;;;14.90;4.82;;;;;;;;;;5161630;27;20082;-73
2023/10/02 11:38:58;;;;;;;11.55;4.25;;;;;;;;;;5160535;27;20061;-73
2023/10/02 11:41:44;;;;;;;7.65;3.53;;;;;;;;;;5176710;27;20026;-74
2023/10/02 11:44:29;;;;;;;9.73;3.80;;;;;;;;;;5175447;27;20022;-73
2023/10/02 11:47:15;;;;;;;11.65;4.10;;;;;;;;;;5175670;27;20085;-73
2023/10/02 11:50:01;;;;;;;6.63;3.33;;;;;;;;;;5175936;27;20121;-73
2023/10/02 11:52:47;;;;;;;9.27;3.22;;;;;;;;;;5161652;27;20419;-72
2023/10/02 11:55:33;;;;;;;10.80;3.50;;;;;;;;;;5175214;27;20023;-73
2023/10/02 11:58:19;;;;;;;9.85;3.70;;;;;;;;;;5175273;27;20091;-73
2023/10/02 12:01:06;;;;;;;5.85;3.35;;;;;;;;;;5176815;27;20105;-73
2023/10/02 12:03:56;;;;;;;10.25;4.28;;;;;;;;;;5175134;27;20018;-73
2023/10/02 12:06:42;;;;;;;10.32;3.90;;;;;;;;;;5160617;27;20019;-73
2023/10/02 12:09:29;;;;;;;8.52;3.60;;;;;;;;;;5161601;27;20061;-73
2023/10/02 12:12:16;;;;;;;9.05;3.70;;;;;;;;;;5163398;27;20444;-72
2023/10/02 12:15:02;;;;;;;12.70;3.58;;;;;;;;;;5179565;27;20110;-73
2023/10/02 12:17:48;;;;;;;9.07;3.90;;;;;;;;;;5165403;27;20464;-72
2023/10/02 12:20:36;;;;;;;10.00;3.97;;;;;;;;;;5164088;27;20014;-73
2023/10/02 12:23:22;;;;;;;8.02;3.47;;;;;;;;;;5180512;27;20325;-73
2023/10/02 12:26:09;;;;;;;10.77;3.72;;;;;;;;;;5163691;27;20022;-72
2023/10/02 12:28:55;;;;;;;9.35;3.92;;;;;;;;;;5179313;27;20064;-72
2023/10/02 12:31:41;;;;;;;10.30;4.07;;;;;;;;;;5165674;27;20022;-73
2023/10/02 12:34:27;;;;;;;10.48;4.80;;;;;;;;;;5165591;27;20037;-71
2023/10/02 12:37:17;;;;;;;6.63;3.75;;;;;;;;;;5157986;27;20025;-71
2023/10/02 12:40:09;;;;;;;14.00;3.70;;;;;;;;;;5178474;27;20055;-70
2023/10/02 12:42:55;;;;;;;10.07;4.22;;;;;;;;;;5179550;27;20033;-70
2023/10/02 12:45:40;;;;;;;14.20;4.40;;;;;;;;;;5164252;27;20022;-70
2023/10/02 12:48:30;;;;;;;18.60;4.25;;;;;;;;;;5178766;27;20082;-71
2023/10/02 12:51:19;;;;;;;16.27;3.95;;;;;;;;;;5164862;27;20026;-70
2023/10/02 12:54:04;;;;;;;8.07;3.83;;;;;;;;;;5179683;27;20444;-70
2023/10/02 12:56:51;;;;;;;9.13;3.35;;;;;;;;;;5164459;27;20051;-70
2023/10/02 12:59:37;;;;;;;11.88;3.60;;;;;;;;;;5179581;27;20019;-71
2023/10/02 13:02:23;;;;;;;8.70;3.75;;;;;;;;;;5177916;27;20163;-69
2023/10/02 13:05:09;;;;;;;8.45;3.75;;;;;;;;;;5179607;27;20098;-70
2023/10/02 13:07:55;;;;;;;9.27;3.70;;;;;;;;;;5179125;27;20097;-70
2023/10/02 13:10:42;;;;;;;13.27;4.15;;;;;;;;;;5178803;27;20033;-71
2023/10/02 13:13:28;;;;;;;9.70;4.28;;;;;;;;;;5179241;27;20098;-70
2023/10/02 13:16:14;;;;;;;9.40;3.60;;;;;;;;;;5179508;27;20104;-70
2023/10/02 13:18:59;;;;;;;8.18;3.63;;;;;;;;;;5177715;27;20026;-70
2023/10/02 13:21:51;;;;;;;15.45;4.20;;;;;;;;;;5177828;27;20101;-70
2023/10/02 13:24:37;;;;;;;9.98;3.90;;;;;;;;;;5178349;27;20021;-69
2023/10/02 13:27:22;;;;;;;16.38;4.15;;;;;;;;;;5163978;27;20014;-70
2023/10/02 13:30:11;;;;;;;10.98;3.53;;;;;;;;;;5178744;27;20039;-70
2023/10/02 13:32:57;;;;;;;14.15;4.40;;;;;;;;;;5160544;27;20046;-70
2023/10/02 13:35:44;;;;;;;12.70;4.03;;;;;;;;;;5157562;27;20097;-71
2023/10/02 13:38:30;;;;;;;10.63;4.88;;;;;;;;;;5156527;27;20101;-71
2023/10/02 13:41:17;;;;;;;11.60;4.20;;;;;;;;;;5156925;27;20018;-71
2023/10/02 13:44:04;;;;;;;10.25;3.92;;;;;;;;;;5157680;27;20033;-70
2023/10/02 13:46:51;;;;;;;9.95;4.13;;;;;;;;;;5158076;27;20061;-70
2023/10/02 13:49:37;;;;;;;6.43;3.40;;;;;;;;;;5158064;27;20110;-70
2023/10/02 13:52:22;;;;;;;7.95;3.50;;;;;;;;;;5156269;27;20371;-70
2023/10/02 13:55:19;;;;;;;11.88;3.50;;;;;;;;;;5156677;27;20029;-71
2023/10/02 13:58:06;;;;;;;12.85;3.65;;;;;;;;;;5156766;27;20066;-71
2023/10/02 14:00:51;;;;;;;7.72;3.72;;;;;;;;;;5156755;27;20014;-70
2023/10/02 14:03:37;;;;;;;8.63;3.67;;;;;;;;;;5156355;27;20187;-70
2023/10/02 14:06:24;;;;;;;11.05;4.20;;;;;;;;;;5156315;27;20015;-70
2023/10/02 14:09:10;;;;;;;11.07;4.30;;;;;;;;;;5157135;27;20022;-70
2023/10/02 14:11:56;;;;;;;10.68;4.22;;;;;;;;;;5156182;27;20026;-70
2023/10/02 14:14:42;;;;;;;10.23;3.97;;;;;;;;;;5156724;27;20374;-71
2023/10/02 14:17:33;;;;;;;14.15;4.45;;;;;;;;;;5157164;27;20037;-70
2023/10/02 14:20:20;;;;;;;12.52;3.50;;;;;;;;;;5156723;27;20356;-69
2023/10/02 14:23:06;;;;;;;10.20;3.53;;;;;;;;;;5156709;27;20098;-70
2023/10/02 14:25:53;;;;;;;11.68;3.38;;;;;;;;;;5156448;27;20019;-70
2023/10/02 14:28:38;;;;;;;6.60;3.40;;;;;;;;;;5156322;27;20019;-70
2023/10/02 14:31:28;;;;;;;10.50;3.97;;;;;;;;;;5161378;27;20022;-71
2023/10/02 14:34:13;;;;;;;17.13;4.07;;;;;;;;;;5177385;27;20096;-71
2023/10/02 14:36:59;;;;;;;8.85;3.63;;;;;;;;;;5162272;27;20022;-71
2023/10/02 14:39:48;;;;;;;17.85;5.05;;;;;;;;;;5162840;27;20064;-70
2023/10/02 14:42:34;;;;;;;11.27;4.60;;;;;;;;;;5160872;27;20097;-70
2023/10/02 14:45:20;;;;;;;18.33;4.25;;;;;;;;;;5162506;27;20515;-70
2023/10/02 14:48:06;;;;;;;14.85;4.50;;;;;;;;;;5177529;27;20093;-70
2023/10/02 14:50:54;;;;;;;12.55;5.13;;;;;;;;;;5161020;27;20038;-69
2023/10/02 14:53:40;;;;;;;11.38;4.32;;;;;;;;;;5175955;27;20022;-70
2023/10/02 14:56:26;;;;;;;11.82;4.47;;;;;;;;;;5177129;27;20046;-70
2023/10/02 14:59:11;;;;;;;12.95;4.47;;;;;;;;;;5177238;27;20408;-71
2023/10/02 15:01:58;;;;;;;14.13;5.05;;;;;;;;;;5177548;27;20110;-71
2023/10/02 15:04:43;;;;;;;16.25;4.40;;;;;;;;;;5161946;27;20050;-70
2023/10/02 15:07:29;;;;;;;15.93;4.60;;;;;;;;;;5177791;27;20015;-70
2023/10/02 15:10:19;;;;;;;38.72;7.07;;;;;;;;;;5176721;27;20022;-70
2023/10/02 15:13:05;;;;;;;26.30;5.00;;;;;;;;;;5176778;27;20079;-70
2023/10/02 15:15:51;;;;;;;18.50;5.13;;;;;;;;;;5176534;27;20022;-70
2023/10/02 15:18:37;;;;;;;14.25;4.63;;;;;;;;;;5160882;27;20029;-71
2023/10/02 15:21:23;;;;;;;16.73;4.55;;;;;;;;;;5176920;27;20018;-71
2023/10/02 15:24:10;;;;;;;15.35;5.00;;;;;;;;;;5176818;27;20022;-71
2023/10/02 15:26:57;;;;;;;17.20;4.82;;;;;;;;;;5175210;27;20051;-70
2023/10/02 15:29:42;;;;;;;15.35;4.65;;;;;;;;;;5161745;27;20026;-71
2023/10/02 15:32:28;;;;;;;18.80;5.22;;;;;;;;;;5175863;27;20022;-72
2023/10/02 15:35:15;;;;;;;23.23;5.95;;;;;;;;;;5177316;27;20018;-71
2023/10/02 15:38:02;;;;;;;12.88;5.50;;;;;;;;;;5176475;27;20018;-69
2023/10/02 15:40:48;;;;;;;26.65;6.45;;;;;;;;;;5176099;27;20029;-71
2023/10/02 15:43:35;;;;;;;24.80;5.45;;;;;;;;;;5176209;27;20022;-69
2023/10/02 15:46:21;;;;;;;15.75;5.30;;;;;;;;;;5175148;27;20026;-70
2023/10/02 15:49:07;;;;;;;24.88;5.78;;;;;;;;;;5174999;27;20062;-70
2023/10/02 15:51:53;;;;;;;18.48;6.03;;;;;;;;;;5176356;27;20179;-70
2023/10/02 15:54:43;;;;;;;21.75;6.35;;;;;;;;;;5178463;27;20359;-71
2023/10/02 15:57:28;;;;;;;26.30;6.43;;;;;;;;;;5176476;27;20022;-70
2023/10/02 16:00:24;;;;;;;17.35;6.40;;;;;;;;;;5176537;27;20067;-70
2023/10/02 16:03:10;;;;;;;15.52;5.90;;;;;;;;;;5176451;27;20022;-70
2023/10/02 16:05:57;;;;;;;26.17;6.78;;;;;;;;;;5176188;27;20018;-70
2023/10/02 16:08:43;;;;;;;14.35;5.68;;;;;;;;;;5176685;27;20416;-74
2023/10/02 16:11:30;;;;;;;16.90;5.88;;;;;;;;;;5161787;27;20506;-73
2023/10/02 16:14:16;;;;;;;22.33;6.80;;;;;;;;;;5185153;27;20030;-72
2023/10/02 16:17:05;;;;;;;50.47;7.90;;;;;;;;;;5171230;27;20014;-74
2023/10/02 16:19:51;;;;;;;33.92;7.50;;;;;;;;;;5185157;27;20023;-73
2023/10/02 16:22:37;;;;;;;14.35;5.50;;;;;;;;;;5190405;27;20026;-73
2023/10/02 16:25:22;;;;;;;13.48;5.57;;;;;;;;;;5191299;27;20018;-73
2023/10/02 16:28:11;;;;;;;14.82;6.10;;;;;;;;;;5176915;27;20014;-73
2023/10/02 16:30:57;;;;;;;15.80;6.25;;;;;;;;;;5190857;27;20018;-74
2023/10/02 16:33:48;;;;;;;15.45;5.80;;;;;;;;;;5170796;27;20147;-73
2023/10/02 16:36:34;;;;;;;25.13;7.25;;;;;;;;;;5170835;27;20018;-72
2023/10/02 16:39:20;;;;;;;20.08;6.95;;;;;;;;;;5170675;27;20015;-76
2023/10/02 16:42:05;;;;;;;16.63;6.95;;;;;;;;;;5166012;27;20106;-76
2023/10/02 16:44:52;;;;;;;18.13;6.93;;;;;;;;;;5167304;27;20026;-75
2023/10/02 16:47:38;;;;;;;18.10;5.90;;;;;;;;;;5168126;27;20022;-76
2023/10/02 16:50:26;;;;;;;20.25;7.63;;;;;;;;;;5167638;27;20075;-77
2023/10/02 16:53:13;;;;;;;15.40;6.38;;;;;;;;;;5158513;27;20377;-76
2023/10/02 16:56:00;;;;;;;19.15;6.18;;;;;;;;;;5155545;27;20050;-77
2023/10/02 16:58:46;;;;;;;18.67;6.35;;;;;;;;;;5158978;27;20014;-78
2023/10/02 17:01:32;;;;;;;19.77;6.05;;;;;;;;;;5160307;27;20086;-76
2023/10/02 17:04:17;;;;;;;17.45;5.80;;;;;;;;;;5158824;27;20054;-78
2023/10/02 17:07:03;;;;;;;19.50;7.72;;;;;;;;;;5159698;27;20026;-77
2023/10/02 17:09:49;;;;;;;17.13;6.88;;;;;;;;;;5160216;27;20022;-79